Time;durP1;ratioP1;P1;durP2;ratioP2;P2;SDS_P1;SDS_P2;PMS_P1;PMS_P2;Temp;Humidity;BMP_temperature;BMP_pressure;BME280_temperature;BME280_humidity;BME280_pressure;Samples;Min_cycle;Max_cycle;Signal;HPM_P1;HPM_P2
2022/05/05 00:00:19;;;;;;;1.55;1.30;;;;;;;5.00;44.91;100193.16;1729526;83;21179;-74
2022/05/05 00:02:45;;;;;;;2.33;1.50;;;;;;;4.95;44.89;100190.55;1729323;83;21073;-74
2022/05/05 00:05:12;;;;;;;4.20;2.12;;;;;;;4.94;44.91;100191.84;1729322;83;21031;-74
2022/05/05 00:07:38;;;;;;;3.45;1.40;;;;;;;4.94;45.17;100193.16;1729135;83;21119;-74
2022/05/05 00:14:23;;;;;;;1.45;1.35;;;;;;;4.96;44.99;100197.92;1729361;83;21106;-74
2022/05/05 00:15:20;;;;;;;2.45;1.50;;;;;;;4.93;44.89;100204.47;1756115;81;20999;-75
2022/05/05 00:17:46;;;;;;;3.10;1.62;;;;;;;4.91;44.82;100211.41;1756368;81;21120;-74
2022/05/05 00:20:15;;;;;;;6.40;1.45;;;;;;;4.89;44.93;100213.15;1755808;81;21586;-74
2022/05/05 00:22:42;;;;;;;1.77;1.42;;;;;;;4.87;45.06;100211.84;1756320;81;21549;-74
2022/05/05 00:25:08;;;;;;;3.50;2.25;;;;;;;4.83;45.24;100216.19;1755872;81;21145;-74
2022/05/05 00:27:36;;;;;;;2.80;1.55;;;;;;;4.82;45.26;100218.38;1755881;81;21124;-74
2022/05/05 00:30:04;;;;;;;3.40;1.52;;;;;;;4.80;45.46;100226.61;1756243;81;21480;-74
2022/05/05 00:32:31;;;;;;;2.52;2.25;;;;;;;4.78;45.51;100226.20;1750939;81;21058;-74
2022/05/05 00:34:59;;;;;;;2.40;1.62;;;;;;;4.75;45.39;100229.66;1750970;81;21061;-73
2022/05/05 00:37:26;;;;;;;5.30;1.72;;;;;;;4.75;45.57;100230.10;1751092;81;21527;-74
2022/05/05 00:39:52;;;;;;;3.17;1.70;;;;;;;4.71;45.61;100227.93;1750972;81;21043;-74
2022/05/05 00:42:18;;;;;;;2.70;1.72;;;;;;;4.69;45.67;100228.78;1750938;81;21066;-74
2022/05/05 00:44:45;;;;;;;4.08;1.80;;;;;;;4.66;45.70;100229.66;1750810;81;21022;-74
2022/05/05 00:47:16;;;;;;;6.78;2.20;;;;;;;4.65;45.76;100230.08;1751071;81;21047;-74
2022/05/05 00:49:49;;;;;;;1.92;1.70;;;;;;;4.63;45.82;100230.52;1750913;81;21815;-74
2022/05/05 00:52:15;;;;;;;2.45;1.70;;;;;;;4.61;45.91;100230.09;1750909;81;21547;-74
2022/05/05 00:54:42;;;;;;;2.30;1.50;;;;;;;4.58;45.95;100234.00;1750792;81;21002;-74
2022/05/05 00:57:09;;;;;;;2.37;1.67;;;;;;;4.56;46.05;100231.83;1750667;81;21078;-74
2022/05/05 00:59:36;;;;;;;2.35;1.77;;;;;;;4.53;46.10;100238.33;1750552;81;21072;-74
2022/05/05 01:02:03;;;;;;;2.20;1.60;;;;;;;4.51;46.15;100245.28;1750914;81;21313;-74
2022/05/05 01:04:31;;;;;;;2.67;1.40;;;;;;;4.49;46.30;100246.59;1750841;81;20991;-74
2022/05/05 01:06:59;;;;;;;2.20;1.45;;;;;;;4.46;46.38;100247.43;1752297;81;21577;-74
2022/05/05 01:09:26;;;;;;;4.33;1.77;;;;;;;4.43;46.40;100246.12;1750736;81;21113;-74
2022/05/05 01:11:53;;;;;;;2.40;1.40;;;;;;;4.40;46.46;100244.80;1751113;81;21073;-74
2022/05/05 01:14:38;;;;;;;2.50;1.50;;;;;;;4.39;46.40;100253.51;1751330;81;20999;-74
2022/05/05 01:17:22;;;;;;;1.77;1.60;;;;;;;4.35;46.72;100251.74;1750680;81;21516;-74
2022/05/05 01:19:48;;;;;;;2.22;1.77;;;;;;;4.34;46.85;100250.02;1750527;81;20994;-74
2022/05/05 01:22:17;;;;;;;1.55;1.42;;;;;;;4.32;46.92;100250.87;1750706;81;21094;-74
2022/05/05 01:30:14;;;;;;;2.12;1.92;;;;;;;4.21;47.21;100256.06;1750813;81;21511;-79
2022/05/05 01:32:41;;;;;;;1.82;1.57;;;;;;;4.18;47.24;100265.16;1750569;81;21608;-79
2022/05/05 01:35:07;;;;;;;4.15;2.05;;;;;;;4.15;47.40;100262.54;1750673;81;21537;-78
2022/05/05 01:37:34;;;;;;;4.12;1.70;;;;;;;4.12;47.38;100266.43;1750971;81;21046;-78
2022/05/05 01:40:01;;;;;;;1.62;1.52;;;;;;;4.08;47.64;100266.45;1727373;81;21104;-78
2022/05/05 01:42:28;;;;;;;3.20;1.62;;;;;;;4.06;47.69;100272.05;1750623;81;21000;-75
2022/05/05 01:44:54;;;;;;;4.10;1.32;;;;;;;4.03;47.73;100265.97;1762173;80;21007;-75
2022/05/05 01:47:21;;;;;;;3.65;1.75;;;;;;;4.02;47.74;100275.97;1783283;80;21011;-76
2022/05/05 01:49:47;;;;;;;3.15;1.92;;;;;;;3.98;48.00;100265.94;1759154;80;21077;-76
2022/05/05 01:52:13;;;;;;;3.90;1.72;;;;;;;3.96;48.18;100263.77;1783512;80;22154;-75
2022/05/05 01:54:40;;;;;;;3.08;1.70;;;;;;;3.91;48.22;100261.13;1783264;80;21034;-76
2022/05/05 01:57:06;;;;;;;1.90;1.65;;;;;;;3.90;48.47;100271.13;1783670;80;21072;-75
2022/05/05 01:59:34;;;;;;;3.72;1.52;;;;;;;3.88;48.53;100273.27;1783276;80;21046;-76
2022/05/05 02:02:00;;;;;;;4.50;1.70;;;;;;;3.87;48.51;100274.16;1783516;80;21802;-76
2022/05/05 02:04:26;;;;;;;5.37;1.60;;;;;;;3.84;48.41;100276.30;1783181;80;21819;-76
2022/05/05 02:06:53;;;;;;;3.27;1.70;;;;;;;3.83;48.52;100277.59;1783452;80;21589;-75
2022/05/05 02:09:19;;;;;;;3.37;1.90;;;;;;;3.81;48.64;100278.02;1783440;80;21022;-76
2022/05/05 02:11:45;;;;;;;1.77;1.67;;;;;;;3.78;48.91;100285.81;1783315;80;21485;-75
2022/05/05 02:14:12;;;;;;;1.87;1.77;;;;;;;3.77;49.13;100294.50;1783559;80;21687;-76
2022/05/05 02:16:39;;;;;;;2.65;1.65;;;;;;;3.74;49.34;100294.48;1783224;80;21832;-76
2022/05/05 02:19:05;;;;;;;4.83;1.85;;;;;;;3.70;49.53;100298.80;1783148;80;21517;-76
2022/05/05 02:21:31;;;;;;;3.85;2.20;;;;;;;3.67;49.61;100299.63;1783507;80;21576;-76
2022/05/05 02:23:58;;;;;;;4.03;2.20;;;;;;;3.64;49.63;100297.01;1783854;80;21572;-75
2022/05/05 02:26:24;;;;;;;2.35;2.15;;;;;;;3.62;49.87;100302.64;1783437;80;21478;-76
2022/05/05 02:28:51;;;;;;;6.17;1.70;;;;;;;3.61;49.83;100302.63;1783203;80;21190;-76
2022/05/05 02:31:17;;;;;;;2.42;2.22;;;;;;;3.60;49.70;100308.68;1784373;80;21533;-76
2022/05/05 02:33:45;;;;;;;2.10;1.90;;;;;;;3.58;50.05;100311.30;1787915;80;21121;-76
2022/05/05 02:38:56;;;;;;;4.45;2.20;;;;;;;3.58;50.05;100316.50;1788358;80;22033;-76
2022/05/05 02:41:23;;;;;;;2.08;1.92;;;;;;;3.56;50.21;100322.55;1788254;80;21124;-76
2022/05/05 02:43:49;;;;;;;6.35;2.15;;;;;;;3.54;50.33;100317.33;1788062;80;21101;-76
2022/05/05 02:46:16;;;;;;;3.47;1.90;;;;;;;3.54;50.59;100320.79;1788422;80;20998;-76
2022/05/05 02:48:42;;;;;;;3.58;2.00;;;;;;;3.54;50.70;100314.73;1788153;80;21068;-75
2022/05/05 02:51:08;;;;;;;2.65;2.20;;;;;;;3.53;50.51;100324.27;1788235;80;21049;-75
2022/05/05 02:56:20;;;;;;;;;;;;;;;3.53;50.98;100328.17;1790788;80;21042;-75
2022/05/05 02:58:47;;;;;;;2.40;1.75;;;;;;;3.52;51.09;100329.02;1788279;80;20170;-75
2022/05/05 03:01:13;;;;;;;5.62;2.00;;;;;;;3.50;51.41;100336.39;1788211;80;21062;-76
2022/05/05 03:03:42;;;;;;;5.10;2.00;;;;;;;3.50;51.48;100339.00;1788257;80;21597;-76
2022/05/05 03:06:08;;;;;;;2.98;2.05;;;;;;;3.50;51.55;100336.39;1788195;80;21510;-75
2022/05/05 03:08:34;;;;;;;2.30;2.10;;;;;;;3.49;51.43;100334.20;1788037;80;21576;-75
2022/05/05 03:11:01;;;;;;;6.37;2.10;;;;;;;3.51;51.59;100342.91;1788127;80;22243;-76
2022/05/05 03:13:28;;;;;;;2.60;2.12;;;;;;;3.53;51.46;100347.69;1788069;80;21575;-76
2022/05/05 03:15:54;;;;;;;2.00;1.87;;;;;;;3.56;51.21;100345.96;1788439;80;21664;-76
2022/05/05 03:18:21;;;;;;;3.77;2.30;;;;;;;3.59;51.26;100341.65;1787757;80;21580;-76
2022/05/05 03:20:48;;;;;;;3.33;2.05;;;;;;;3.62;51.28;100344.28;1788281;80;21113;-76
2022/05/05 03:23:15;;;;;;;3.98;2.10;;;;;;;3.66;51.32;100352.53;1787997;80;21464;-75
2022/05/05 03:25:42;;;;;;;2.60;2.00;;;;;;;3.70;51.12;100358.22;1787806;80;21070;-76
2022/05/05 03:28:09;;;;;;;3.05;2.00;;;;;;;3.74;51.32;100353.90;1788089;80;21006;-75
2022/05/05 03:30:36;;;;;;;2.40;2.20;;;;;;;3.79;50.86;100355.23;1788042;80;21537;-75
2022/05/05 03:33:03;;;;;;;2.45;2.22;;;;;;;3.84;50.83;100362.20;1790624;80;21049;-76
2022/05/05 03:35:30;;;;;;;2.65;1.87;;;;;;;3.88;51.28;100356.58;1784453;80;22244;-75
2022/05/05 03:37:56;;;;;;;3.27;2.35;;;;;;;3.96;50.69;100370.52;1759904;81;21049;-76
2022/05/05 03:40:23;;;;;;;3.17;1.85;;;;;;;4.02;50.40;100370.56;1759924;81;21612;-76
2022/05/05 03:42:50;;;;;;;2.33;2.12;;;;;;;4.08;50.24;100375.83;1759983;81;21138;-76
2022/05/05 03:45:17;;;;;;;4.12;2.50;;;;;;;4.14;50.00;100377.58;1759628;81;21132;-76
2022/05/05 03:47:43;;;;;;;3.02;2.22;;;;;;;4.22;49.70;100378.90;1759820;81;21097;-76
2022/05/05 03:50:10;;;;;;;2.35;2.15;;;;;;;4.30;49.66;100388.07;1760056;81;21148;-75
2022/05/05 03:52:37;;;;;;;2.30;2.10;;;;;;;4.37;49.71;100384.62;1760107;81;21117;-76
2022/05/05 03:55:04;;;;;;;2.10;2.00;;;;;;;4.44;49.71;100394.23;1764658;80;21129;-76
2022/05/05 03:57:31;;;;;;;3.33;2.20;;;;;;;4.50;49.06;100394.23;1723903;82;21035;-75
2022/05/05 03:59:57;;;;;;;3.17;2.08;;;;;;;4.58;48.73;100394.28;1724260;83;21095;-75
2022/05/05 04:02:23;;;;;;;2.25;2.08;;;;;;;4.64;48.70;100393.88;1760170;81;21077;-76
2022/05/05 04:04:50;;;;;;;2.55;2.10;;;;;;;4.71;48.39;100396.08;1759944;81;21077;-76
2022/05/05 04:07:16;;;;;;;2.50;2.20;;;;;;;4.79;48.45;100396.97;1724323;82;21124;-76
2022/05/05 04:09:43;;;;;;;3.15;2.12;;;;;;;4.88;48.46;100396.56;1759744;81;21120;-75
2022/05/05 04:12:10;;;;;;;2.27;1.92;;;;;;;4.96;48.36;100401.34;1760419;81;21086;-76
2022/05/05 04:14:38;;;;;;;6.53;2.12;;;;;;;5.03;48.10;100401.81;1723894;83;21416;-76
2022/05/05 04:17:05;;;;;;;5.37;2.00;;;;;;;5.10;48.01;100398.78;1760199;81;21092;-74
2022/05/05 04:19:32;;;;;;;2.22;2.02;;;;;;;5.18;47.58;100400.53;1759677;81;21112;-73
2022/05/05 04:21:58;;;;;;;2.35;2.15;;;;;;;5.27;47.01;100401.42;1723839;83;21111;-76
2022/05/05 04:24:25;;;;;;;2.15;1.95;;;;;;;5.35;46.92;100404.91;1760106;81;21045;-75
2022/05/05 04:26:51;;;;;;;1.98;1.87;;;;;;;5.42;46.99;100405.78;1760117;81;21019;-76
2022/05/05 04:29:18;;;;;;;2.50;2.10;;;;;;;5.49;47.03;100406.22;1724195;83;21154;-76
2022/05/05 04:31:44;;;;;;;2.02;1.90;;;;;;;5.54;46.95;100410.56;1712176;81;21104;-75
2022/05/05 04:34:11;;;;;;;8.08;2.05;;;;;;;5.62;46.83;100408.41;1756961;81;21022;-75
2022/05/05 04:36:38;;;;;;;5.50;2.08;;;;;;;5.71;46.87;100407.09;1725545;82;21007;-75
2022/05/05 04:39:06;;;;;;;4.08;2.17;;;;;;;5.80;46.53;100408.40;1725632;82;21540;-75
2022/05/05 04:41:33;;;;;;;3.45;2.35;;;;;;;5.88;46.70;100408.38;1757161;81;21082;-75
2022/05/05 04:43:59;;;;;;;3.15;2.10;;;;;;;5.97;46.39;100412.74;1756866;81;21143;-76
2022/05/05 04:46:26;;;;;;;3.02;2.33;;;;;;;6.03;45.92;100410.13;1725962;82;21070;-76
2022/05/05 04:48:53;;;;;;;4.97;1.95;;;;;;;6.08;45.96;100414.47;1756994;81;21070;-75
2022/05/05 04:51:20;;;;;;;2.77;2.20;;;;;;;6.16;45.88;100422.30;1756934;81;21038;-76
2022/05/05 04:53:47;;;;;;;2.30;1.85;;;;;;;6.23;45.06;100418.80;1725739;82;21055;-75
2022/05/05 04:56:15;;;;;;;2.30;2.10;;;;;;;6.27;45.20;100415.31;1756933;81;21588;-76
2022/05/05 04:58:42;;;;;;;6.95;2.47;;;;;;;6.34;45.31;100416.17;1756720;81;21548;-76
2022/05/05 05:01:08;;;;;;;3.37;2.40;;;;;;;6.38;44.95;100419.20;1725550;83;21676;-76
2022/05/05 05:03:36;;;;;;;3.77;2.40;;;;;;;6.47;45.04;100419.59;1757025;81;21097;-73
2022/05/05 05:06:05;;;;;;;3.22;2.40;;;;;;;6.56;44.62;100422.20;1757104;81;21532;-74
2022/05/05 05:08:33;;;;;;;3.70;1.95;;;;;;;6.64;44.33;100425.66;1725485;82;21201;-76
2022/05/05 05:11:00;;;;;;;3.02;2.12;;;;;;;6.70;44.03;100420.83;1757027;81;21156;-76
2022/05/05 05:13:26;;;;;;;3.37;2.35;;;;;;;6.76;43.88;100418.61;1757167;81;21053;-76
2022/05/05 05:15:53;;;;;;;3.80;2.25;;;;;;;6.82;43.83;100425.12;1725693;82;21102;-76
2022/05/05 05:18:19;;;;;;;5.17;2.72;;;;;;;6.87;43.75;100427.28;1757127;81;21038;-76
2022/05/05 05:20:48;;;;;;;13.60;2.72;;;;;;;6.95;43.43;100428.13;1756885;81;21121;-76
2022/05/05 05:23:14;;;;;;;4.78;2.42;;;;;;;7.02;43.16;100431.58;1725449;82;21055;-76
2022/05/05 05:25:41;;;;;;;12.23;2.47;;;;;;;7.09;43.26;100437.64;1725297;83;21055;-75
2022/05/05 05:28:07;;;;;;;5.97;2.47;;;;;;;7.18;43.28;100433.23;1725703;83;21094;-76
2022/05/05 05:30:34;;;;;;;2.30;2.10;;;;;;;7.26;43.45;100435.78;1725372;82;21079;-75
2022/05/05 05:33:00;;;;;;;2.85;2.20;;;;;;;7.34;43.20;100439.23;1756744;81;21532;-76
2022/05/05 05:35:27;;;;;;;5.08;2.25;;;;;;;7.44;42.98;100435.66;1755923;81;21058;-75
2022/05/05 05:37:54;;;;;;;15.08;2.98;;;;;;;7.53;42.69;100438.68;1757111;81;21010;-75
2022/05/05 05:40:21;;;;;;;7.50;2.98;;;;;;;7.64;42.65;100434.66;1756729;81;21478;-76
2022/05/05 05:42:48;;;;;;;7.10;2.72;;;;;;;7.74;42.03;100442.01;1756915;81;21027;-75
2022/05/05 05:45:14;;;;;;;5.85;2.72;;;;;;;7.84;42.03;100440.19;1756892;81;21146;-75
2022/05/05 05:47:41;;;;;;;6.05;2.33;;;;;;;7.93;41.69;100438.78;1756814;81;21065;-75
2022/05/05 05:50:09;;;;;;;4.05;2.10;;;;;;;8.02;40.77;100438.71;1761367;80;21132;-75
2022/05/05 05:52:37;;;;;;;8.63;2.10;;;;;;;8.07;40.89;100437.33;1727037;83;21687;-76
2022/05/05 05:55:05;;;;;;;6.10;1.82;;;;;;;8.12;41.30;100441.67;1756767;81;21002;-75
2022/05/05 05:57:32;;;;;;;2.25;2.02;;;;;;;8.21;40.57;100446.40;1725498;83;21166;-75
2022/05/05 05:59:58;;;;;;;5.70;1.92;;;;;;;8.28;40.73;100448.06;1756753;81;21061;-74
2022/05/05 06:05:09;;;;;;;7.40;2.30;;;;;;;8.38;40.43;100451.02;1725714;83;21067;-75
2022/05/05 06:07:36;;;;;;;4.62;1.87;;;;;;;8.51;40.86;100447.41;1757170;81;20975;-75
2022/05/05 06:10:04;;;;;;;2.92;2.12;;;;;;;8.65;40.90;100455.56;1756785;81;21735;-75
2022/05/05 06:12:30;;;;;;;5.50;1.52;;;;;;;8.77;40.73;100455.41;1725060;83;21039;-74
2022/05/05 06:14:58;;;;;;;6.72;2.15;;;;;;;8.88;40.04;100450.05;1725365;82;21107;-74
2022/05/05 06:17:24;;;;;;;3.75;1.62;;;;;;;8.99;39.30;100444.19;1756981;81;21110;-75
2022/05/05 06:19:50;;;;;;;2.10;1.57;;;;;;;9.06;39.42;100445.87;1757114;81;21160;-74
2022/05/05 06:22:17;;;;;;;2.75;1.47;;;;;;;9.16;39.27;100455.77;1725564;82;21132;-75
2022/05/05 06:24:44;;;;;;;2.60;1.65;;;;;;;9.22;38.98;100455.70;1756637;81;20991;-74
2022/05/05 06:27:10;;;;;;;5.78;1.85;;;;;;;9.27;39.04;100446.00;1756859;81;20999;-74
2022/05/05 06:29:37;;;;;;;1.75;1.60;;;;;;;9.34;38.99;100451.17;1725281;83;21141;-75
2022/05/05 06:32:05;;;;;;;2.40;1.67;;;;;;;9.38;38.34;100452.84;1757009;81;21096;-75
2022/05/05 06:34:32;;;;;;;3.95;1.62;;;;;;;9.44;37.97;100452.77;1756857;80;21129;-75
2022/05/05 06:36:59;;;;;;;2.33;1.80;;;;;;;9.49;37.98;100457.05;1725406;83;21027;-74
2022/05/05 06:39:25;;;;;;;2.08;1.87;;;;;;;9.56;38.27;100457.83;1725592;82;21111;-74
2022/05/05 06:41:52;;;;;;;2.30;1.50;;;;;;;9.66;38.29;100458.10;1756911;81;21046;-74
2022/05/05 06:44:18;;;;;;;1.70;1.60;;;;;;;9.79;38.33;100457.92;1757232;81;21137;-75
2022/05/05 06:46:45;;;;;;;2.22;1.70;;;;;;;9.91;37.88;100465.59;1725465;83;21164;-75
2022/05/05 06:49:12;;;;;;;3.05;1.70;;;;;;;10.01;36.62;100461.06;1725650;83;21082;-75
2022/05/05 06:51:38;;;;;;;2.02;1.50;;;;;;;10.09;36.27;100468.83;1756720;81;21077;-75
2022/05/05 06:54:05;;;;;;;1.80;1.40;;;;;;;10.16;35.41;100461.25;1757082;81;20994;-74
2022/05/05 06:56:32;;;;;;;1.90;1.25;;;;;;;10.21;35.01;100472.55;1725762;83;21012;-75
2022/05/05 06:58:59;;;;;;;4.45;1.52;;;;;;;10.21;35.37;100468.14;1725411;83;21166;-75
2022/05/05 07:06:55;;;;;;;;;;;;;;;10.41;34.78;100471.77;1728303;82;21075;-75
2022/05/05 07:12:07;;;;;;;1.50;1.40;;;;;;;10.50;34.35;100479.06;1725965;83;21527;-74
2022/05/05 07:14:33;;;;;;;1.45;1.20;;;;;;;10.58;34.28;100478.48;1725424;83;21636;-74
2022/05/05 07:16:59;;;;;;;2.98;1.90;;;;;;;10.64;34.10;100483.64;1757225;81;21564;-75
2022/05/05 07:19:26;;;;;;;4.50;1.80;;;;;;;10.72;33.76;100486.95;1756971;81;21588;-74
2022/05/05 07:21:52;;;;;;;2.50;1.60;;;;;;;10.78;34.16;100485.53;1725463;83;22016;-74
2022/05/05 07:24:19;;;;;;;5.65;1.57;;;;;;;10.88;33.10;100480.09;1757380;81;22023;-75
2022/05/05 07:26:45;;;;;;;4.28;1.60;;;;;;;10.94;33.47;100485.21;1757030;81;21466;-74
2022/05/05 07:29:12;;;;;;;1.95;1.70;;;;;;;11.03;33.66;100484.15;1725666;82;21047;-74
2022/05/05 07:31:39;;;;;;;5.60;1.75;;;;;;;11.14;33.92;100481.70;1756774;81;21227;-74
2022/05/05 07:34:06;;;;;;;2.98;1.50;;;;;;;11.24;32.99;100482.84;1756818;81;21062;-74
2022/05/05 07:36:33;;;;;;;2.00;1.40;;;;;;;11.28;32.24;100487.13;1725570;83;21146;-74
2022/05/05 07:38:59;;;;;;;4.10;1.92;;;;;;;11.27;32.41;100485.41;1753886;81;21516;-74
2022/05/05 07:41:27;;;;;;;6.85;1.75;;;;;;;11.30;32.18;100483.57;1752758;81;21518;-74
2022/05/05 07:43:54;;;;;;;4.28;1.42;;;;;;;11.34;31.93;100480.41;1752523;81;21554;-74
2022/05/05 07:46:23;;;;;;;2.20;1.47;;;;;;;11.33;32.75;100473.40;1752671;81;21708;-75
2022/05/05 07:48:49;;;;;;;2.75;1.35;;;;;;;11.44;32.68;100472.72;1752730;81;21152;-74
2022/05/05 07:51:15;;;;;;;3.10;1.57;;;;;;;11.58;32.45;100477.66;1753047;81;21074;-75
2022/05/05 07:53:41;;;;;;;1.27;1.17;;;;;;;11.70;32.71;100484.41;1752915;81;21106;-75
2022/05/05 07:56:08;;;;;;;1.75;1.50;;;;;;;11.81;31.75;100479.75;1751633;81;21043;-74
2022/05/05 07:58:34;;;;;;;4.17;1.60;;;;;;;11.90;31.51;100481.30;1750584;81;21046;-75
2022/05/05 08:01:01;;;;;;;2.00;1.57;;;;;;;11.99;31.92;100474.98;1724184;83;21231;-75
2022/05/05 08:03:28;;;;;;;3.58;3.08;;;;;;;12.04;30.54;100476.59;1724122;83;21101;-75
2022/05/05 08:05:56;;;;;;;4.78;2.15;;;;;;;12.06;30.94;100479.19;1723875;83;21035;-74
2022/05/05 08:08:22;;;;;;;5.97;3.95;;;;;;;12.06;30.74;100468.64;1724243;83;21463;-74
2022/05/05 08:10:53;;;;;;;2.72;2.47;;;;;;;12.13;31.13;100472.84;1724028;83;21121;-74
2022/05/05 08:13:19;;;;;;;3.70;1.57;;;;;;;12.23;31.47;100474.34;1721678;83;21138;-74
2022/05/05 08:15:45;;;;;;;3.08;1.50;;;;;;;12.35;32.17;100463.05;1724266;83;21098;-74
2022/05/05 08:18:12;;;;;;;4.05;1.62;;;;;;;12.50;31.37;100471.88;1724150;83;21082;-74
2022/05/05 08:20:38;;;;;;;4.08;1.75;;;;;;;12.63;31.42;100467.98;1723988;83;21557;-74
2022/05/05 08:23:05;;;;;;;1.67;1.40;;;;;;;12.74;30.72;100467.70;1723988;83;20975;-74
2022/05/05 08:28:28;;;;;;;2.20;1.60;;;;;;;12.89;31.15;100465.05;1724190;83;20978;-74
2022/05/05 08:30:56;;;;;;;3.52;1.55;;;;;;;12.96;30.00;100458.70;1723945;83;21050;-73
2022/05/05 08:33:27;;;;;;;9.10;1.82;;;;;;;13.05;30.09;100463.31;1723864;82;22146;-74
2022/05/05 08:35:52;;;;;;;5.35;1.80;;;;;;;13.18;29.81;100467.31;1721583;83;21444;-75
2022/05/05 08:38:19;;;;;;;2.22;1.37;;;;;;;13.28;29.78;100465.23;1724037;83;21471;-74
2022/05/05 08:40:45;;;;;;;3.45;1.47;;;;;;;13.34;29.83;100460.66;1724124;83;21042;-75
2022/05/05 08:43:12;;;;;;;2.25;1.75;;;;;;;13.43;29.44;100463.94;1724275;83;21565;-74
2022/05/05 08:45:39;;;;;;;6.22;1.65;;;;;;;13.47;28.96;100462.94;1724214;83;21564;-74
2022/05/05 08:48:24;;;;;;;3.65;1.55;;;;;;;13.51;29.14;100456.63;1724166;83;21165;-74
2022/05/05 08:50:54;;;;;;;7.58;4.28;;;;;;;13.61;28.54;100454.56;1724112;83;21133;-75
2022/05/05 08:53:21;;;;;;;6.42;2.37;;;;;;;13.66;28.97;100458.78;1723995;83;21094;-75
2022/05/05 08:55:48;;;;;;;3.75;2.30;;;;;;;13.71;28.44;100450.70;1696378;83;20994;-74
2022/05/05 08:58:14;;;;;;;3.92;1.90;;;;;;;13.76;28.12;100454.06;1723893;83;20987;-74
2022/05/05 09:00:41;;;;;;;6.83;2.58;;;;;;;13.74;28.04;100452.78;1724108;83;20960;-75
2022/05/05 09:03:09;;;;;;;1.40;1.30;;;;;;;13.79;28.75;100452.64;1723953;83;21172;-74
2022/05/05 09:05:52;;;;;;;1.65;1.55;;;;;;;13.87;28.25;100455.02;1724026;83;21047;-74
2022/05/05 09:08:28;;;;;;;4.42;1.80;;;;;;;13.93;28.31;100448.20;1723999;83;21118;-75
2022/05/05 09:10:57;;;;;;;3.20;1.70;;;;;;;13.93;27.69;100452.17;1724269;83;21054;-74
2022/05/05 09:13:34;;;;;;;2.58;1.47;;;;;;;13.95;28.40;100459.59;1724057;83;21482;-75
2022/05/05 09:16:03;;;;;;;3.77;1.52;;;;;;;14.05;28.17;100451.75;1723767;83;21119;-74
2022/05/05 09:18:33;;;;;;;4.55;1.67;;;;;;;14.07;28.37;100453.91;1721581;83;21058;-74
2022/05/05 09:21:02;;;;;;;4.92;1.90;;;;;;;14.15;27.83;100454.10;1723390;83;21062;-74
2022/05/05 09:24:34;;;;;;;4.00;1.30;;;;;;;14.22;27.25;100451.64;1732296;82;21590;-74
2022/05/05 09:26:10;;;;;;;1.60;1.40;;;;;;;14.27;27.24;100449.26;1728227;82;21065;-74
2022/05/05 09:28:36;;;;;;;2.98;1.45;;;;;;;14.40;27.91;100452.78;1732183;82;21187;-74
2022/05/05 09:31:09;;;;;;;1.10;1.10;;;;;;;14.54;27.10;100456.26;1732440;82;21026;-74
2022/05/05 09:33:40;;;;;;;3.40;1.12;;;;;;;14.63;26.87;100459.95;1734632;81;21065;-75
2022/05/05 09:36:11;;;;;;;2.58;1.50;;;;;;;14.68;26.87;100448.25;1753326;81;21004;-74
2022/05/05 09:39:04;;;;;;;2.10;1.50;;;;;;;14.50;25.43;100451.06;1750169;80;21127;-74
2022/05/05 09:41:34;;;;;;;2.85;1.62;;;;;;;14.26;26.16;100438.72;1698445;83;21149;-74
2022/05/05 09:44:05;;;;;;;3.05;1.62;;;;;;;14.27;27.44;100452.34;1697323;84;21063;-74
2022/05/05 09:46:32;;;;;;;2.02;1.60;;;;;;;14.37;26.56;100440.51;1690007;83;21058;-74
2022/05/05 09:49:08;;;;;;;6.05;1.82;;;;;;;14.48;26.97;100446.30;1697313;84;21039;-74
2022/05/05 09:51:46;;;;;;;6.70;1.77;;;;;;;14.66;27.35;100447.92;1698790;83;21076;-75
2022/05/05 09:59:48;;;;;;;3.55;1.87;;;;;;;14.92;26.11;100442.11;1698813;83;21015;-74
2022/05/05 10:05:17;;;;;;;6.10;1.80;;;;;;;15.00;26.18;100440.89;1719777;83;21030;-74
2022/05/05 10:07:44;;;;;;;3.85;1.50;;;;;;;15.05;25.39;100444.22;1702511;83;21102;-75
2022/05/05 10:10:16;;;;;;;5.72;1.50;;;;;;;15.01;25.84;100437.33;1727023;83;20999;-75
2022/05/05 10:12:45;;;;;;;4.80;1.50;;;;;;;15.03;26.03;100437.27;1721865;83;21110;-75
2022/05/05 10:15:12;;;;;;;3.15;1.52;;;;;;;15.11;26.47;100437.81;1753413;81;21094;-75
2022/05/05 10:17:39;;;;;;;3.83;1.25;;;;;;;15.26;26.56;100437.68;1753839;81;21468;-75
2022/05/05 10:20:10;;;;;;;4.33;1.60;;;;;;;15.39;25.53;100427.46;1726707;83;21112;-75
2022/05/05 10:22:53;;;;;;;3.08;1.35;;;;;;;15.53;26.32;100431.77;1753654;81;21063;-74
2022/05/05 10:25:27;;;;;;;2.37;1.27;;;;;;;15.67;25.23;100421.91;1752885;81;21157;-74
2022/05/05 10:27:56;;;;;;;3.37;1.17;;;;;;;15.74;25.86;100426.50;1753492;81;21071;-75
2022/05/05 10:30:34;;;;;;;3.65;1.35;;;;;;;15.85;25.76;100426.92;1753555;81;21050;-75
2022/05/05 10:33:04;;;;;;;2.55;1.27;;;;;;;15.92;24.98;100431.06;1753622;81;22390;-75
2022/05/05 10:35:45;;;;;;;3.33;1.30;;;;;;;15.94;24.97;100435.84;1753306;80;21098;-75
2022/05/05 10:38:41;;;;;;;1.42;1.15;;;;;;;15.95;24.00;100425.63;1753067;81;21475;-75
2022/05/05 10:41:36;;;;;;;5.53;1.30;;;;;;;15.93;24.41;100428.79;1713515;81;21158;-75
2022/05/05 10:44:23;;;;;;;5.08;1.20;;;;;;;15.96;24.90;100424.69;1753332;80;21043;-74
2022/05/05 10:47:06;;;;;;;6.65;1.77;;;;;;;16.04;24.52;100416.85;1753633;81;21796;-75
2022/05/05 10:49:42;;;;;;;7.72;1.30;;;;;;;16.12;24.19;100427.56;1753141;81;21078;-75
2022/05/05 10:52:23;;;;;;;1.70;1.30;;;;;;;16.15;24.21;100433.19;1727823;81;21345;-75
2022/05/05 10:54:50;;;;;;;1.72;1.30;;;;;;;16.19;24.16;100426.84;1753545;81;21046;-75
2022/05/05 10:57:31;;;;;;;2.92;1.05;;;;;;;16.22;23.94;100417.38;1703252;81;21538;-75
2022/05/05 11:00:14;;;;;;;2.50;1.60;;;;;;;16.30;22.98;100418.39;1753718;81;21083;-74
2022/05/05 11:03:02;;;;;;;8.25;1.50;;;;;;;16.39;24.56;100422.42;1753728;81;22036;-75
2022/05/05 11:05:36;;;;;;;4.53;1.67;;;;;;;16.52;23.76;100419.18;1753377;81;21000;-75
2022/05/05 11:08:20;;;;;;;3.90;1.30;;;;;;;16.65;23.81;100416.81;1753933;81;21085;-74
2022/05/05 11:13:42;;;;;;;6.05;1.30;;;;;;;16.79;22.68;100413.99;1753632;81;21069;-74
2022/05/05 11:22:24;;;;;;;2.33;1.70;;;;;;;16.87;22.43;100407.41;1753218;81;20429;-75
2022/05/05 11:24:52;;;;;;;3.47;1.42;;;;;;;16.82;22.62;100400.09;1753700;81;20992;-75
2022/05/05 11:27:22;;;;;;;1.40;1.30;;;;;;;16.79;22.85;100399.37;1753175;81;21128;-75
2022/05/05 11:29:51;;;;;;;5.40;1.45;;;;;;;16.85;22.91;100399.13;1753113;81;21016;-74
2022/05/05 11:32:30;;;;;;;3.33;1.35;;;;;;;16.94;23.53;100388.53;1753624;81;21098;-75
2022/05/05 11:34:56;;;;;;;7.78;1.45;;;;;;;17.06;23.14;100396.80;1753434;80;21569;-75
2022/05/05 11:37:31;;;;;;;3.37;1.10;;;;;;;17.19;23.03;100393.55;1756685;80;21053;-75
2022/05/05 11:40:00;;;;;;;5.35;1.27;;;;;;;17.30;22.56;100391.68;1759934;81;21124;-75
2022/05/05 11:42:27;;;;;;;5.92;1.72;;;;;;;17.36;22.93;100392.25;1759623;80;21103;-76
2022/05/05 11:44:55;;;;;;;10.50;2.60;;;;;;;17.45;23.53;100398.46;1727787;83;21015;-73
2022/05/05 11:47:22;;;;;;;3.52;1.60;;;;;;;17.53;22.67;100404.72;1728770;83;21012;-74
2022/05/05 11:49:52;;;;;;;1.50;1.17;;;;;;;17.59;22.93;100392.93;1727560;83;21101;-73
2022/05/05 11:52:24;;;;;;;4.97;1.70;;;;;;;17.70;23.18;100399.92;1729886;82;21121;-73
2022/05/05 11:54:54;;;;;;;2.35;1.00;;;;;;;17.80;22.33;100394.52;1729339;82;21046;-74
2022/05/05 11:57:36;;;;;;;3.77;1.47;;;;;;;17.85;22.44;100393.41;1729522;83;21153;-74
2022/05/05 12:02:49;;;;;;;3.35;1.42;;;;;;;17.97;21.86;100380.83;1730321;82;21332;-74
2022/05/05 12:05:17;;;;;;;1.92;1.52;;;;;;;17.98;21.82;100379.89;1730532;83;21952;-74
2022/05/05 12:07:44;;;;;;;2.08;1.27;;;;;;;18.00;22.42;100380.67;1729790;82;21454;-74
2022/05/05 12:10:12;;;;;;;2.75;1.07;;;;;;;18.08;22.25;100377.14;1729299;83;21094;-74
2022/05/05 12:12:45;;;;;;;1.45;1.30;;;;;;;18.19;22.46;100380.59;1728215;83;21086;-75
2022/05/05 12:15:12;;;;;;;4.10;1.30;;;;;;;18.34;22.33;100374.91;1728691;83;21026;-74
2022/05/05 12:17:52;;;;;;;1.85;1.25;;;;;;;18.45;21.47;100361.88;1728072;83;21162;-74
2022/05/05 12:20:20;;;;;;;3.25;1.22;;;;;;;18.45;20.62;100352.55;1728192;83;21014;-74
2022/05/05 12:23:00;;;;;;;3.65;1.45;;;;;;;18.28;21.61;100364.59;1727928;83;21577;-74